createdAt,value
2022-09-15T04:03:51.054Z,16.54
2022-09-15T04:07:53.722Z,16.44
2022-09-15T04:11:56.777Z,16.37
2022-09-15T04:16:00.994Z,16.46
2022-09-15T04:20:05.174Z,16.51
2022-09-15T04:24:07.748Z,16.45
2022-09-15T04:28:10.382Z,16.45
2022-09-15T04:32:12.834Z,16.47
2022-09-15T04:36:19.168Z,16.61
2022-09-15T04:40:21.797Z,16.59
2022-09-15T04:44:24.810Z,16.67
2022-09-15T04:48:27.665Z,16.75
2022-09-15T04:52:31.991Z,16.65
2022-09-15T04:56:34.517Z,16.61
2022-09-15T05:00:43.571Z,16.52
2022-09-15T05:04:48.520Z,16.37
2022-09-15T05:08:54.911Z,16.37
2022-09-15T05:12:57.407Z,16.22
2022-09-15T05:16:59.893Z,16.28
2022-09-15T05:21:03.204Z,16.42
2022-09-15T05:25:07.396Z,16.51
2022-09-15T05:29:09.876Z,16.71
2022-09-15T05:33:12.322Z,16.84
2022-09-15T05:37:14.800Z,16.77
2022-09-15T05:41:20.938Z,16.51
2022-09-15T05:45:23.744Z,16.38
2022-09-15T05:49:26.230Z,16.49
2022-09-15T05:53:29.281Z,16.52
2022-09-15T05:57:33.089Z,16.74
2022-09-15T06:01:35.841Z,16.78
2022-09-15T06:05:38.364Z,17.00
2022-09-15T06:09:42.135Z,17.07
2022-09-15T06:13:46.964Z,17.35
2022-09-15T06:17:50.638Z,17.66
2022-09-15T06:21:54.106Z,17.68
2022-09-15T06:25:56.404Z,17.70
2022-09-15T06:30:00.385Z,17.69
2022-09-15T06:34:03.968Z,17.80
2022-09-15T06:38:06.485Z,17.75
2022-09-15T06:42:10.357Z,17.76
2022-09-15T06:46:20.856Z,17.73
2022-09-15T06:50:23.331Z,17.56
2022-09-15T06:54:25.818Z,17.68
2022-09-15T06:58:28.267Z,17.61
2022-09-15T07:02:32.546Z,17.46
2022-09-15T07:06:35.349Z,17.53
2022-09-15T07:10:37.777Z,17.54
2022-09-15T07:14:40.241Z,17.62
2022-09-15T07:18:44.742Z,17.88
2022-09-15T07:22:47.210Z,17.94
2022-09-15T07:26:49.691Z,18.21
2022-09-15T07:30:52.140Z,18.33
2022-09-15T07:34:58.320Z,18.48
2022-09-15T07:39:04.310Z,18.69
2022-09-15T07:43:07.729Z,18.82
2022-09-15T07:47:10.391Z,18.88
2022-09-15T07:51:15.057Z,18.70
2022-09-15T07:55:18.457Z,18.68
2022-09-15T07:59:20.801Z,18.64
2022-09-15T08:03:23.240Z,18.43
2022-09-15T08:07:27.018Z,18.58
2022-09-15T08:11:30.214Z,19.02
2022-09-15T08:15:32.654Z,19.34
2022-09-15T08:19:36.672Z,19.64
2022-09-15T08:23:41.094Z,19.80
2022-09-15T08:27:43.534Z,19.76
2022-09-15T08:31:47.136Z,19.95
2022-09-15T08:35:49.658Z,19.95
2022-09-15T08:39:53.453Z,20.18
2022-09-15T08:44:01.929Z,20.05
2022-09-15T08:48:08.420Z,20.20
2022-09-15T08:52:17.118Z,20.29
2022-09-15T08:56:22.187Z,20.42
2022-09-15T09:00:24.708Z,19.94
2022-09-15T09:04:44.043Z,19.88
2022-09-15T09:09:15.819Z,19.98
2022-09-15T09:13:35.439Z,19.81
2022-09-15T09:17:53.226Z,19.88
2022-09-15T09:21:59.690Z,19.95
2022-09-15T09:26:04.118Z,20.21
2022-09-15T09:30:15.911Z,20.48
2022-09-15T09:34:24.970Z,20.65
2022-09-15T09:38:31.222Z,21.01
2022-09-15T09:42:37.074Z,20.28
2022-09-15T09:46:41.335Z,20.47
2022-09-15T09:50:44.146Z,20.27
2022-09-15T09:54:51.519Z,20.29
2022-09-15T09:58:55.207Z,19.14
2022-09-15T10:02:58.995Z,19.84
2022-09-15T10:07:01.544Z,20.15
2022-09-15T10:11:08.464Z,20.08
2022-09-15T10:15:24.646Z,19.96
2022-09-15T10:19:30.851Z,20.70
2022-09-15T10:23:34.441Z,21.38
2022-09-15T10:27:37.727Z,20.91
2022-09-15T10:31:40.518Z,21.03
2022-09-15T10:35:44.392Z,20.77
2022-09-15T10:39:54.446Z,20.60
2022-09-15T10:44:18.534Z,20.40
2022-09-15T10:48:54.987Z,20.01
2022-09-15T10:53:14.127Z,20.45
2022-09-15T10:57:29.867Z,20.64
2022-09-15T11:01:46.554Z,21.00
2022-09-15T11:06:02.234Z,21.01
2022-09-15T11:10:14.277Z,20.79
2022-09-15T11:14:31.823Z,20.68
2022-09-15T11:18:55.606Z,20.81
2022-09-15T11:23:03.335Z,20.58
2022-09-15T11:27:16.678Z,20.77
2022-09-15T11:31:25.178Z,20.03
2022-09-15T11:35:34.009Z,19.91
2022-09-15T11:39:41.261Z,20.12
2022-09-15T11:43:54.935Z,20.40
2022-09-15T11:48:01.892Z,20.30
2022-09-15T11:52:13.447Z,20.26
2022-09-15T11:56:22.303Z,20.89
2022-09-15T12:00:26.247Z,21.04
2022-09-15T12:04:33.199Z,22.42
2022-09-15T12:08:41.635Z,22.20
2022-09-15T12:12:46.529Z,22.44
2022-09-15T12:16:51.852Z,22.48
2022-09-15T12:21:01.022Z,21.95
2022-09-15T12:25:10.218Z,21.52
2022-09-15T12:29:32.626Z,21.30
2022-09-15T12:33:46.434Z,20.99
2022-09-15T12:37:53.868Z,21.07
2022-09-15T12:42:05.598Z,20.94
2022-09-15T12:46:18.338Z,20.85
2022-09-15T12:50:29.693Z,21.41
2022-09-15T12:54:35.218Z,21.98
2022-09-15T12:58:40.094Z,22.06
2022-09-15T13:02:45.073Z,21.43
2022-09-15T13:07:31.786Z,20.67
2022-09-15T13:11:40.138Z,20.98
2022-09-15T13:15:47.402Z,20.82
2022-09-15T13:19:54.119Z,20.52
2022-09-15T13:23:56.886Z,21.03
2022-09-15T13:28:03.365Z,21.40
2022-09-15T13:32:16.244Z,21.53
2022-09-15T13:38:03.749Z,21.47
2022-09-15T13:41:25.135Z,22.07
2022-09-15T13:45:46.946Z,21.93
2022-09-15T13:49:53.398Z,21.38
2022-09-15T13:53:59.677Z,21.39
2022-09-15T14:02:29.359Z,21.69
2022-09-15T14:06:37.356Z,21.53
2022-09-15T14:10:46.528Z,21.72
2022-09-15T14:14:53.958Z,21.66
2022-09-15T14:19:00.028Z,21.12
2022-09-15T14:23:02.574Z,21.51
2022-09-15T14:27:10.476Z,21.71
2022-09-15T14:31:12.930Z,21.21
2022-09-15T14:35:20.156Z,21.20
2022-09-15T14:39:24.082Z,20.90
2022-09-15T14:43:28.291Z,21.01
2022-09-15T14:47:31.237Z,21.16
2022-09-15T14:51:36.162Z,21.35
2022-09-15T14:55:48.850Z,21.39
2022-09-15T14:59:56.633Z,21.34
2022-09-15T15:04:09.731Z,21.54
2022-09-15T15:08:26.672Z,21.46
2022-09-15T15:12:33.009Z,21.28
2022-09-15T15:16:35.980Z,21.22
2022-09-15T15:20:50.261Z,20.96
2022-09-15T15:24:54.667Z,20.91
2022-09-15T15:28:57.137Z,20.95
2022-09-15T15:33:01.143Z,20.31
2022-09-15T15:37:04.306Z,20.39
2022-09-15T15:41:09.010Z,20.34
2022-09-15T15:45:24.034Z,20.04
2022-09-15T15:49:29.380Z,20.06
2022-09-15T15:53:32.053Z,19.78
2022-09-15T15:57:39.289Z,19.36
2022-09-15T16:01:41.865Z,19.14
2022-09-15T16:05:46.319Z,18.73
2022-09-15T16:09:50.302Z,18.23
2022-09-15T16:13:54.460Z,18.34
2022-09-15T16:17:56.918Z,18.85
2022-09-15T16:21:59.638Z,19.09
2022-09-15T16:26:04.242Z,19.25
2022-09-15T16:30:11.924Z,19.38
2022-09-15T16:34:17.868Z,19.40
2022-09-15T16:38:20.935Z,19.38
2022-09-15T16:42:23.371Z,19.34
2022-09-15T16:46:27.210Z,19.23
2022-09-15T16:50:31.164Z,19.04
2022-09-15T16:54:33.998Z,19.04
2022-09-15T16:58:36.461Z,19.14
2022-09-15T17:02:40.270Z,19.10
2022-09-15T17:06:43.058Z,19.13
2022-09-15T17:10:46.056Z,19.14
2022-09-15T17:14:48.517Z,19.17
2022-09-15T17:18:52.294Z,19.18
2022-09-15T17:22:55.800Z,19.22
2022-09-15T17:26:58.336Z,18.90
2022-09-15T17:31:02.300Z,18.54
2022-09-15T17:35:15.714Z,18.26
2022-09-15T17:39:18.179Z,17.83
2022-09-15T17:43:22.931Z,17.80
2022-09-15T17:47:25.366Z,17.72
2022-09-15T17:51:29.384Z,17.74
2022-09-15T17:55:33.530Z,17.64
2022-09-15T17:59:35.986Z,17.58
2022-09-15T18:03:38.861Z,17.58
2022-09-15T18:07:42.720Z,17.57
2022-09-15T18:11:45.192Z,17.42
2022-09-15T18:15:48.905Z,17.65
2022-09-15T18:19:51.705Z,17.66
2022-09-15T18:23:55.830Z,17.74
2022-09-15T18:27:59.198Z,17.91
2022-09-15T18:32:03.026Z,17.99
2022-09-15T18:36:06.977Z,18.03
2022-09-15T18:40:12.329Z,17.95
2022-09-15T18:44:14.862Z,17.53
2022-09-15T18:48:17.484Z,17.15
2022-09-15T18:52:19.955Z,17.24
2022-09-15T18:56:24.086Z,17.29
2022-09-15T19:00:28.651Z,17.17
2022-09-15T19:04:33.326Z,17.28
2022-09-15T19:08:37.785Z,17.37
2022-09-15T19:12:41.769Z,17.10
2022-09-15T19:16:56.968Z,16.75
2022-09-15T19:21:05.470Z,16.68
2022-09-15T19:25:09.627Z,16.61
2022-09-15T19:29:14.037Z,16.59
2022-09-15T19:33:16.528Z,16.69
2022-09-15T19:37:20.725Z,16.49
2022-09-15T19:41:23.259Z,16.47
2022-09-15T19:45:27.406Z,16.43
2022-09-15T19:49:29.906Z,16.13
2022-09-15T19:53:32.706Z,16.21
2022-09-15T19:57:35.477Z,16.20
2022-09-15T20:01:39.338Z,16.40
2022-09-15T20:05:41.804Z,16.32
2022-09-15T20:09:44.344Z,16.40
2022-09-15T20:13:46.881Z,16.62
2022-09-15T20:17:50.662Z,16.58
2022-09-15T20:21:54.161Z,16.64
2022-09-15T20:25:57.144Z,16.81
2022-09-15T20:29:59.596Z,16.91
2022-09-15T20:34:03.468Z,16.80
2022-09-15T20:38:06.399Z,16.71
2022-09-15T20:42:08.864Z,16.75
2022-09-15T20:46:14.295Z,16.91
2022-09-15T20:50:18.209Z,16.88
2022-09-15T20:54:20.743Z,16.91
2022-09-15T20:58:23.642Z,16.95
